createdAt,value
2018-04-25T00:01:37.164Z,20.50
2018-04-25T00:04:12.101Z,20.50
2018-04-25T00:06:47.333Z,20.50
2018-04-25T00:09:23.612Z,20.30
2018-04-25T00:11:58.846Z,20.30
2018-04-25T00:14:33.982Z,20.20
2018-04-25T00:17:09.235Z,20.30
2018-04-25T00:19:44.267Z,20.30
2018-04-25T00:22:19.908Z,20.20
2018-04-25T00:24:55.662Z,20.20
2018-04-25T00:27:31.536Z,20.50
2018-04-25T00:30:07.465Z,20.40
2018-04-25T00:32:43.063Z,20.40
2018-04-25T00:35:18.770Z,20.40
2018-04-25T00:37:53.816Z,20.40
2018-04-25T00:40:28.879Z,20.20
2018-04-25T00:43:04.994Z,20.10
2018-04-25T00:45:40.422Z,20.00
2018-04-25T00:48:15.945Z,20.10
2018-04-25T00:50:53.060Z,20.10
2018-04-25T00:53:28.293Z,20.10
2018-04-25T00:56:03.730Z,20.30
2018-04-25T00:58:39.625Z,20.30
2018-04-25T01:01:17.461Z,20.30
2018-04-25T01:03:53.339Z,20.30
2018-04-25T01:06:28.305Z,20.20
2018-04-25T01:09:03.745Z,20.30
2018-04-25T01:11:39.268Z,20.30
2018-04-25T01:14:14.841Z,20.30
2018-04-25T01:16:50.282Z,20.30
2018-04-25T01:19:26.967Z,20.20
2018-04-25T01:22:02.246Z,20.20
2018-04-25T01:24:38.484Z,20.30
2018-04-25T01:27:13.914Z,20.20
2018-04-25T01:29:50.225Z,20.20
2018-04-25T01:32:25.679Z,20.10
2018-04-25T01:35:02.600Z,19.90
2018-04-25T01:37:53.233Z,19.90
2018-04-25T01:40:29.968Z,19.90
2018-04-25T01:43:15.600Z,19.80
2018-04-25T01:46:09.230Z,19.80
2018-04-25T01:51:58.182Z,19.80
2018-04-25T01:54:51.262Z,19.90
2018-04-25T01:57:43.719Z,20.00
2018-04-25T02:00:36.465Z,20.10
2018-04-25T02:06:24.632Z,19.80
2018-04-25T02:09:00.204Z,19.80
2018-04-25T02:11:36.122Z,19.80
2018-04-25T02:14:12.122Z,19.80
2018-04-25T02:16:48.510Z,19.70
2018-04-25T02:19:24.411Z,19.80
2018-04-25T02:22:00.847Z,19.80
2018-04-25T02:24:36.447Z,19.80
2018-04-25T02:27:12.117Z,19.90
2018-04-25T02:29:47.620Z,19.90
2018-04-25T02:32:23.749Z,19.90
2018-04-25T02:34:58.965Z,19.80
2018-04-25T02:37:33.845Z,19.80
2018-04-25T02:40:09.216Z,19.80
2018-04-25T02:42:45.797Z,19.80
2018-04-25T02:45:21.344Z,19.80
2018-04-25T02:47:57.473Z,19.80
2018-04-25T02:50:32.402Z,19.80
2018-04-25T02:53:07.236Z,19.90
2018-04-25T02:55:42.272Z,19.90
2018-04-25T02:58:18.842Z,19.80
2018-04-25T03:00:53.873Z,19.70
2018-04-25T03:03:29.726Z,19.70
2018-04-25T03:06:04.773Z,19.70
2018-04-25T03:08:39.906Z,19.90
2018-04-25T03:11:15.575Z,19.80
2018-04-25T03:13:51.321Z,19.90
2018-04-25T03:16:27.797Z,19.80
2018-04-25T03:19:02.808Z,19.80
2018-04-25T03:21:37.740Z,19.80
2018-04-25T03:24:12.775Z,19.80
2018-04-25T03:26:48.015Z,19.80
2018-04-25T03:29:23.869Z,19.80
2018-04-25T03:31:59.622Z,19.90
2018-04-25T03:34:34.357Z,19.90
2018-04-25T03:37:09.593Z,19.80
2018-04-25T03:39:45.242Z,19.60
2018-04-25T03:42:20.274Z,19.60
2018-04-25T03:44:55.313Z,19.50
2018-04-25T03:47:31.374Z,19.50
2018-04-25T03:50:07.101Z,19.50
2018-04-25T03:52:42.768Z,19.50
2018-04-25T03:55:18.523Z,19.50
2018-04-25T03:57:55.094Z,19.50
2018-04-25T04:00:30.396Z,19.50
2018-04-25T04:03:06.085Z,19.70
2018-04-25T04:05:41.016Z,19.70
2018-04-25T04:08:15.849Z,19.70
2018-04-25T04:10:51.078Z,19.60
2018-04-25T04:13:26.737Z,19.40
2018-04-25T04:16:01.710Z,19.40
2018-04-25T04:18:36.497Z,19.30
2018-04-25T04:21:11.738Z,19.20
2018-04-25T04:23:46.569Z,19.20
2018-04-25T04:26:21.502Z,19.20
2018-04-25T04:28:56.337Z,19.30
2018-04-25T04:31:32.698Z,19.30
2018-04-25T04:34:07.943Z,19.30
2018-04-25T04:36:42.974Z,19.30
2018-04-25T04:39:17.804Z,19.30
2018-04-25T04:41:53.044Z,19.30
2018-04-25T04:44:29.719Z,19.50
2018-04-25T04:47:04.757Z,19.50
2018-04-25T04:49:40.606Z,19.50
2018-04-25T04:52:16.563Z,19.40
2018-04-25T04:54:51.810Z,19.40
2018-04-25T04:57:27.349Z,19.50
2018-04-25T05:00:02.281Z,19.40
2018-04-25T05:02:38.751Z,19.50
2018-04-25T05:05:13.893Z,19.50
2018-04-25T05:07:48.822Z,19.60
2018-04-25T05:10:24.583Z,19.60
2018-04-25T05:12:59.305Z,19.70
2018-04-25T05:15:34.883Z,19.70
2018-04-25T05:18:10.342Z,19.60
2018-04-25T05:20:46.023Z,19.60
2018-04-25T05:23:22.327Z,19.60
2018-04-25T05:25:57.964Z,19.60
2018-04-25T05:28:32.793Z,19.60
2018-04-25T05:31:07.943Z,19.60
2018-04-25T05:33:43.789Z,19.80
2018-04-25T05:36:19.635Z,19.80
2018-04-25T05:38:55.183Z,19.80
2018-04-25T05:41:30.216Z,19.80
2018-04-25T05:44:05.055Z,19.90
2018-04-25T05:46:40.706Z,19.90
2018-04-25T05:49:17.680Z,20.00
2018-04-25T05:51:53.846Z,20.10
2018-04-25T05:54:29.386Z,20.10
2018-04-25T05:57:04.531Z,20.10
2018-04-25T05:59:41.246Z,20.10
2018-04-25T06:02:17.972Z,20.30
2018-04-25T06:04:53.112Z,20.30
2018-04-25T06:07:28.948Z,20.30
2018-04-25T06:10:04.729Z,20.20
2018-04-25T06:12:39.782Z,20.20
2018-04-25T06:15:15.607Z,20.30
2018-04-25T06:17:51.201Z,20.30
2018-04-25T06:20:26.297Z,20.50
2018-04-25T06:23:02.043Z,20.40
2018-04-25T06:25:36.875Z,20.40
2018-04-25T06:28:11.754Z,20.60
2018-04-25T06:30:46.538Z,20.60
2018-04-25T06:33:22.189Z,20.80
2018-04-25T06:35:57.738Z,20.80
2018-04-25T06:38:33.588Z,20.80
2018-04-25T06:41:08.624Z,20.80
2018-04-25T06:43:43.658Z,20.80
2018-04-25T06:46:18.939Z,20.90
2018-04-25T06:48:54.443Z,21.00
2018-04-25T06:51:30.197Z,21.00
2018-04-25T06:54:05.127Z,21.10
2018-04-25T06:56:40.035Z,21.30
2018-04-25T06:59:14.947Z,21.70
2018-04-25T07:01:51.460Z,21.80
2018-04-25T07:04:26.436Z,21.80
2018-04-25T07:07:01.270Z,22.10
2018-04-25T07:09:36.156Z,22.30
2018-04-25T07:12:12.172Z,22.30
2018-04-25T07:14:47.661Z,22.50
2018-04-25T07:17:22.700Z,22.80
2018-04-25T07:19:59.175Z,23.10
2018-04-25T07:22:34.440Z,23.00
2018-04-25T07:25:09.543Z,23.10
2018-04-25T07:27:45.117Z,23.20
2018-04-25T07:30:20.739Z,24.00
2018-04-25T07:32:55.983Z,24.00
2018-04-25T07:35:31.772Z,25.00
2018-04-25T07:38:07.687Z,25.90
2018-04-25T07:40:42.518Z,26.40
2018-04-25T07:43:17.353Z,26.90
2018-04-25T07:45:52.593Z,27.40
2018-04-25T07:48:28.037Z,27.70
2018-04-25T07:51:03.685Z,28.10
2018-04-25T07:53:38.722Z,28.10
2018-04-25T07:56:13.961Z,28.10
2018-04-25T07:58:49.769Z,28.10
2018-04-25T08:01:25.859Z,28.40
2018-04-25T08:04:01.633Z,28.60
2018-04-25T08:06:37.273Z,28.80
2018-04-25T08:09:12.119Z,29.20
2018-04-25T08:11:47.141Z,29.70
2018-04-25T08:14:35.076Z,29.80
2018-04-25T08:17:21.933Z,30.60
2018-04-25T08:22:57.967Z,31.60
2018-04-25T08:25:33.207Z,31.30
2018-04-25T08:28:08.859Z,32.00
2018-04-25T08:30:43.685Z,32.30
2018-04-25T08:33:18.723Z,32.20
2018-04-25T08:35:53.492Z,32.60
2018-04-25T08:38:28.592Z,32.00
2018-04-25T08:41:04.445Z,31.90
2018-04-25T08:43:40.298Z,31.70
2018-04-25T08:46:16.424Z,31.70
2018-04-25T08:48:52.727Z,32.50
2018-04-25T08:51:27.779Z,32.50
2018-04-25T08:54:02.538Z,32.70
2018-04-25T08:56:37.407Z,33.00
2018-04-25T08:59:13.337Z,32.40
2018-04-25T09:01:49.028Z,32.30
2018-04-25T09:04:24.065Z,32.90
2018-04-25T09:06:58.920Z,33.10
2018-04-25T09:09:33.944Z,31.30
2018-04-25T09:12:08.860Z,31.00
2018-04-25T09:14:43.794Z,30.50
2018-04-25T09:17:18.580Z,29.50
2018-04-25T09:19:54.483Z,29.10
2018-04-25T09:22:30.333Z,28.70
2018-04-25T09:25:06.082Z,28.80
2018-04-25T09:27:41.587Z,28.60
2018-04-25T09:30:17.178Z,28.20
2018-04-25T09:32:52.423Z,28.10
2018-04-25T09:35:27.244Z,27.90
2018-04-25T09:38:02.491Z,27.60
2018-04-25T09:40:37.934Z,27.80
2018-04-25T09:43:13.170Z,27.30
2018-04-25T09:45:48.979Z,27.30
2018-04-25T09:48:24.675Z,27.20
2018-04-25T09:51:00.632Z,26.60
2018-04-25T09:53:36.485Z,26.60
2018-04-25T09:56:12.338Z,26.30
2018-04-25T09:58:47.989Z,26.40
2018-04-25T10:01:28.553Z,26.40
2018-04-25T10:04:03.871Z,26.40
2018-04-25T10:06:39.857Z,26.50
2018-04-25T10:09:15.448Z,26.20
2018-04-25T10:11:50.747Z,26.30
2018-04-25T10:14:26.400Z,26.10
2018-04-25T10:17:02.270Z,26.20
2018-04-25T10:19:38.102Z,25.90
2018-04-25T10:22:15.078Z,25.90
2018-04-25T10:24:50.233Z,25.90
2018-04-25T10:27:26.899Z,26.50
2018-04-25T10:30:02.010Z,26.50
2018-04-25T10:32:37.686Z,26.80
2018-04-25T10:35:12.505Z,27.60
2018-04-25T10:37:47.446Z,28.30
2018-04-25T10:40:22.502Z,28.80
2018-04-25T10:42:57.519Z,29.40
2018-04-25T10:45:33.163Z,29.70
2018-04-25T10:48:08.207Z,30.40
2018-04-25T10:50:44.469Z,30.10
2018-04-25T10:53:19.702Z,30.40
2018-04-25T10:55:55.154Z,30.40
2018-04-25T10:58:31.024Z,30.40
2018-04-25T11:01:06.901Z,30.50
2018-04-25T11:03:42.713Z,30.80
2018-04-25T11:06:17.750Z,31.30
2018-04-25T11:08:53.602Z,32.20
2018-04-25T11:11:29.297Z,32.70
2018-04-25T11:14:04.389Z,32.50
2018-04-25T11:16:39.216Z,31.20
2018-04-25T11:19:15.071Z,31.10
2018-04-25T11:21:49.909Z,30.80
2018-04-25T11:24:24.936Z,30.70
2018-04-25T11:26:59.771Z,31.10
2018-04-25T11:29:34.808Z,31.40
2018-04-25T11:32:09.542Z,30.90
2018-04-25T11:34:45.283Z,29.80
2018-04-25T11:37:20.315Z,29.80
2018-04-25T11:39:55.355Z,29.90
2018-04-25T11:42:30.394Z,29.80
2018-04-25T11:45:06.856Z,30.00
2018-04-25T11:47:43.733Z,29.60
2018-04-25T11:50:18.983Z,29.60
2018-04-25T11:52:55.743Z,29.30
2018-04-25T11:55:30.688Z,29.10
2018-04-25T11:58:05.720Z,29.30
2018-04-25T12:00:42.291Z,29.70
2018-04-25T12:03:17.529Z,30.20
2018-04-25T12:05:53.384Z,29.80
2018-04-25T12:08:29.248Z,29.50
2018-04-25T12:11:05.097Z,29.30
2018-04-25T12:13:40.065Z,29.40
2018-04-25T12:16:15.879Z,29.20
2018-04-25T12:18:50.712Z,28.10
2018-04-25T12:21:25.540Z,28.10
2018-04-25T12:24:00.371Z,27.40
2018-04-25T12:26:35.410Z,28.20
2018-04-25T12:29:10.679Z,28.10
2018-04-25T12:31:47.317Z,28.60
2018-04-25T12:34:23.170Z,29.30
2018-04-25T12:36:58.217Z,29.30
2018-04-25T12:39:33.245Z,28.40
2018-04-25T12:42:08.896Z,28.40
2018-04-25T12:44:43.929Z,28.70
2018-04-25T12:47:19.020Z,28.30
2018-04-25T12:49:53.792Z,27.10
2018-04-25T12:52:29.032Z,26.70
2018-04-25T12:55:04.073Z,26.50
2018-04-25T12:57:39.103Z,26.60
2018-04-25T13:00:14.138Z,26.50
2018-04-25T13:02:49.787Z,25.80
2018-04-25T13:05:24.620Z,26.10
2018-04-25T13:07:59.694Z,25.70
2018-04-25T13:10:35.443Z,25.70
2018-04-25T13:13:10.547Z,26.20
2018-04-25T13:15:46.032Z,26.80
2018-04-25T13:18:21.077Z,26.50
2018-04-25T13:20:55.806Z,26.20
2018-04-25T13:23:30.683Z,25.90
2018-04-25T13:26:05.620Z,25.50
2018-04-25T13:28:40.658Z,25.00
2018-04-25T13:31:15.332Z,25.20
2018-04-25T13:33:50.152Z,24.60
2018-04-25T13:36:24.941Z,23.70
2018-04-25T13:39:00.586Z,23.70
2018-04-25T13:41:37.200Z,23.20
2018-04-25T13:44:12.316Z,23.20
2018-04-25T13:46:48.128Z,22.90
2018-04-25T13:49:22.748Z,22.70
2018-04-25T13:51:57.710Z,22.60
2018-04-25T13:54:32.540Z,22.60
2018-04-25T13:57:07.676Z,22.60
2018-04-25T13:59:43.430Z,22.90
2018-04-25T14:02:18.466Z,23.00
2018-04-25T14:04:53.405Z,22.70
2018-04-25T14:07:28.074Z,22.50
2018-04-25T14:10:03.159Z,22.60
2018-04-25T14:12:38.090Z,22.30
2018-04-25T14:15:12.924Z,22.20
2018-04-25T14:17:47.889Z,22.00
2018-04-25T14:20:22.743Z,21.90
2018-04-25T14:22:57.720Z,21.90
2018-04-25T14:25:33.368Z,21.80
2018-04-25T14:28:08.915Z,21.90
2018-04-25T14:30:44.600Z,22.00
2018-04-25T14:33:20.323Z,22.00
2018-04-25T14:35:55.076Z,22.30
2018-04-25T14:38:31.317Z,22.40
2018-04-25T14:41:06.581Z,22.40
2018-04-25T14:43:42.166Z,22.30
2018-04-25T14:46:17.351Z,22.10
2018-04-25T14:48:53.193Z,22.00
2018-04-25T14:51:27.972Z,21.90
2018-04-25T14:54:02.886Z,21.70
2018-04-25T14:56:37.825Z,21.70
2018-04-25T14:59:12.616Z,21.60
2018-04-25T15:01:47.498Z,21.80
2018-04-25T15:04:22.494Z,21.70
2018-04-25T15:06:57.471Z,21.60
2018-04-25T15:09:33.738Z,21.50
2018-04-25T15:12:08.985Z,21.50
2018-04-25T15:14:44.100Z,21.60
2018-04-25T15:17:20.831Z,21.70
2018-04-25T15:19:55.921Z,21.60
2018-04-25T15:22:31.384Z,21.60
2018-04-25T15:25:07.125Z,21.60
2018-04-25T15:27:41.859Z,21.70
2018-04-25T15:30:16.826Z,21.60
2018-04-25T15:32:52.429Z,21.50
2018-04-25T15:35:27.291Z,21.40
2018-04-25T15:38:02.215Z,21.50
2018-04-25T15:40:37.741Z,21.50
2018-04-25T15:43:13.126Z,21.50
2018-04-25T15:45:48.575Z,21.40
2018-04-25T15:48:24.323Z,21.10
2018-04-25T15:50:59.395Z,21.10
2018-04-25T15:53:34.598Z,21.10
2018-04-25T15:56:09.633Z,20.90
2018-04-25T15:58:44.496Z,20.80
2018-04-25T16:01:19.500Z,20.80
2018-04-25T16:03:54.603Z,21.00
2018-04-25T16:06:29.574Z,21.00
2018-04-25T16:09:04.710Z,21.10
2018-04-25T16:11:41.069Z,21.50
2018-04-25T16:14:16.049Z,21.50
2018-04-25T16:16:51.057Z,21.50
2018-04-25T16:19:25.884Z,21.50
2018-04-25T16:22:00.736Z,21.50
2018-04-25T16:24:35.728Z,21.50
2018-04-25T16:27:10.982Z,21.40
2018-04-25T16:29:46.505Z,21.40
2018-04-25T16:32:21.949Z,21.90
2018-04-25T16:34:58.130Z,21.80
2018-04-25T16:37:32.918Z,21.80
2018-04-25T16:40:08.018Z,21.90
2018-04-25T16:42:43.025Z,21.80
2018-04-25T16:45:17.862Z,21.90
2018-04-25T16:47:53.061Z,21.80
2018-04-25T16:50:28.124Z,21.70
2018-04-25T16:53:03.785Z,21.70
2018-04-25T16:55:39.138Z,21.70
2018-04-25T16:58:13.814Z,21.70
2018-04-25T17:00:48.936Z,21.90
2018-04-25T17:03:24.571Z,22.00
2018-04-25T17:06:00.203Z,21.90
2018-04-25T17:08:34.968Z,21.80
2018-04-25T17:11:09.644Z,21.70
2018-04-25T17:13:44.485Z,21.70
2018-04-25T17:16:19.551Z,21.80
2018-04-25T17:18:54.429Z,21.90
2018-04-25T17:21:29.483Z,22.00
2018-04-25T17:24:04.767Z,22.10
2018-04-25T17:26:39.636Z,22.10
2018-04-25T17:29:14.835Z,22.10
2018-04-25T17:31:50.137Z,22.20
2018-04-25T17:34:25.120Z,22.20
2018-04-25T17:37:00.143Z,22.20
2018-04-25T17:39:36.317Z,22.30
2018-04-25T17:42:11.301Z,22.40
2018-04-25T17:44:45.976Z,22.30
2018-04-25T17:47:21.125Z,22.30
2018-04-25T17:49:57.128Z,22.20
2018-04-25T17:52:32.154Z,22.00
2018-04-25T17:55:06.984Z,21.80
2018-04-25T17:57:42.055Z,21.60
2018-04-25T18:00:17.157Z,21.60
2018-04-25T18:02:52.155Z,21.50
2018-04-25T18:05:28.163Z,21.40
2018-04-25T18:08:03.389Z,21.40
2018-04-25T18:10:39.151Z,21.30
2018-04-25T18:13:14.535Z,21.30
2018-04-25T18:15:50.235Z,21.40
2018-04-25T18:18:25.270Z,21.40
2018-04-25T18:21:00.307Z,21.40
2018-04-25T18:23:36.148Z,21.60
2018-04-25T18:26:11.901Z,21.50
2018-04-25T18:28:47.068Z,21.50
2018-04-25T18:31:21.765Z,21.50
2018-04-25T18:33:56.735Z,21.60
2018-04-25T18:36:31.790Z,21.60
2018-04-25T18:39:06.704Z,21.60
2018-04-25T18:41:41.647Z,21.60
2018-04-25T18:44:17.600Z,21.60
2018-04-25T18:46:53.060Z,21.50
2018-04-25T18:49:27.993Z,21.40
2018-04-25T18:52:03.493Z,21.30
2018-04-25T18:54:38.865Z,21.40
2018-04-25T18:57:13.981Z,21.50
2018-04-25T18:59:49.008Z,21.50
2018-04-25T19:02:24.043Z,21.60
2018-04-25T19:04:59.829Z,21.70
2018-04-25T19:07:35.109Z,21.70
2018-04-25T19:10:10.697Z,21.60
2018-04-25T19:12:45.739Z,21.60
2018-04-25T19:15:20.741Z,21.60
2018-04-25T19:17:55.731Z,21.60
2018-04-25T19:20:30.659Z,21.70
2018-04-25T19:23:05.756Z,21.70
2018-04-25T19:25:41.302Z,21.70
2018-04-25T19:28:16.167Z,21.80
2018-04-25T19:30:51.032Z,21.80
2018-04-25T19:33:25.756Z,21.70
2018-04-25T19:36:00.939Z,21.70
2018-04-25T19:38:36.749Z,21.60
2018-04-25T19:41:11.620Z,21.60
2018-04-25T19:43:46.403Z,21.60
2018-04-25T19:46:21.697Z,21.60
2018-04-25T19:48:58.366Z,21.60
2018-04-25T19:51:33.581Z,21.60
2018-04-25T19:54:09.570Z,21.70
2018-04-25T19:56:45.154Z,21.70
2018-04-25T19:59:20.356Z,21.70
2018-04-25T20:01:55.896Z,21.70
2018-04-25T20:04:31.714Z,21.80
2018-04-25T20:07:07.610Z,21.50
2018-04-25T20:09:42.845Z,21.40
2018-04-25T20:12:18.181Z,21.40
2018-04-25T20:14:53.021Z,21.40
2018-04-25T20:17:28.054Z,21.40
2018-04-25T20:20:03.097Z,21.50
2018-04-25T20:22:38.220Z,21.60
2018-04-25T20:25:13.266Z,21.60
2018-04-25T20:27:48.408Z,21.60
2018-04-25T20:30:23.179Z,21.70
2018-04-25T20:32:58.272Z,21.70
2018-04-25T20:35:33.090Z,21.70
2018-04-25T20:38:08.128Z,21.50
2018-04-25T20:40:43.675Z,21.30
2018-04-25T20:43:18.720Z,21.30
2018-04-25T20:45:53.644Z,21.30
2018-04-25T20:48:29.442Z,21.30
2018-04-25T20:51:05.744Z,21.30
2018-04-25T20:53:42.249Z,21.20
2018-04-25T20:56:17.428Z,21.20
2018-04-25T20:58:53.934Z,21.20
2018-04-25T21:01:29.114Z,21.20
2018-04-25T21:04:03.955Z,21.20
2018-04-25T21:06:39.386Z,21.10
2018-04-25T21:09:14.284Z,21.00
2018-04-25T21:11:49.419Z,20.90
2018-04-25T21:14:24.560Z,20.80
2018-04-25T21:16:59.388Z,20.80
2018-04-25T21:19:34.612Z,20.80
2018-04-25T21:22:09.763Z,20.70
2018-04-25T21:24:44.799Z,20.60
2018-04-25T21:27:19.786Z,20.50
2018-04-25T21:29:54.664Z,20.50
2018-04-25T21:32:29.494Z,20.40
2018-04-25T21:35:05.964Z,20.30
2018-04-25T21:37:40.996Z,20.30
2018-04-25T21:40:16.238Z,20.30
2018-04-25T21:42:51.277Z,20.30
2018-04-25T21:45:26.316Z,20.20
2018-04-25T21:48:01.347Z,20.10
2018-04-25T21:50:37.084Z,20.00
2018-04-25T21:53:12.439Z,20.00
2018-04-25T21:55:47.477Z,20.00
2018-04-25T21:58:22.345Z,20.10
2018-04-25T22:00:57.161Z,20.10
2018-04-25T22:03:32.276Z,20.00
2018-04-25T22:06:07.924Z,20.00
2018-04-25T22:08:43.167Z,20.00
2018-04-25T22:11:19.013Z,20.10
2018-04-25T22:13:53.846Z,20.10
2018-04-25T22:16:29.084Z,20.10
2018-04-25T22:19:03.915Z,20.10
2018-04-25T22:21:38.563Z,20.00
2018-04-25T22:24:13.436Z,20.10
2018-04-25T22:26:48.609Z,20.20
2018-04-25T22:29:24.506Z,20.10
2018-04-25T22:31:59.846Z,20.10
2018-04-25T22:34:34.945Z,20.10
2018-04-25T22:37:09.766Z,20.10
2018-04-25T22:39:44.765Z,20.10
2018-04-25T22:42:19.998Z,20.00
2018-04-25T22:44:54.810Z,20.00
2018-04-25T22:47:30.120Z,20.00
2018-04-25T22:50:05.161Z,20.00
2018-04-25T22:52:40.804Z,20.10
2018-04-25T22:55:17.003Z,20.20
2018-04-25T22:57:52.518Z,20.20
2018-04-25T23:00:27.489Z,20.20
2018-04-25T23:03:03.506Z,20.20
2018-04-25T23:05:38.684Z,20.20
2018-04-25T23:08:13.790Z,20.30
2018-04-25T23:10:49.430Z,20.20
2018-04-25T23:13:25.290Z,20.20
2018-04-25T23:16:01.137Z,20.20
2018-04-25T23:18:36.384Z,20.20
2018-04-25T23:21:11.525Z,20.20
2018-04-25T23:23:46.342Z,20.30
2018-04-25T23:26:21.484Z,20.30
2018-04-25T23:28:56.728Z,20.30
2018-04-25T23:31:32.315Z,20.50
2018-04-25T23:34:08.140Z,20.40
2018-04-25T23:36:43.429Z,20.40
2018-04-25T23:39:18.408Z,20.30
2018-04-25T23:41:53.280Z,20.40
2018-04-25T23:44:28.372Z,20.60
2018-04-25T23:47:03.208Z,20.60
2018-04-25T23:49:39.710Z,20.60
2018-04-25T23:52:15.011Z,20.50
2018-04-25T23:54:50.465Z,20.50
2018-04-25T23:57:25.431Z,20.50
